sensor_id;sensor_type;location;lat;lon;timestamp;P1;durP1;ratioP1;P2;durP2;ratioP2
18510;SDS011;9384;48.044;11.616;2022-09-09T00:02:10;1.30;;;1.30;;
18510;SDS011;9384;48.044;11.616;2022-09-09T00:04:40;1.53;;;1.37;;
18510;SDS011;9384;48.044;11.616;2022-09-09T00:07:09;1.57;;;1.57;;
18510;SDS011;9384;48.044;11.616;2022-09-09T00:09:44;1.33;;;1.23;;
18510;SDS011;9384;48.044;11.616;2022-09-09T00:12:14;1.60;;;1.50;;
18510;SDS011;9384;48.044;11.616;2022-09-09T00:14:46;1.17;;;1.10;;
18510;SDS011;9384;48.044;11.616;2022-09-09T00:17:18;2.20;;;1.50;;
18510;SDS011;9384;48.044;11.616;2022-09-09T00:19:50;1.40;;;1.40;;
18510;SDS011;9384;48.044;11.616;2022-09-09T00:22:20;1.47;;;1.37;;
18510;SDS011;9384;48.044;11.616;2022-09-09T00:24:51;1.57;;;1.47;;
18510;SDS011;9384;48.044;11.616;2022-09-09T00:27:21;1.83;;;1.40;;
18510;SDS011;9384;48.044;11.616;2022-09-09T00:29:53;1.40;;;1.30;;
18510;SDS011;9384;48.044;11.616;2022-09-09T00:32:24;1.63;;;1.53;;
18510;SDS011;9384;48.044;11.616;2022-09-09T00:34:55;1.93;;;1.73;;
18510;SDS011;9384;48.044;11.616;2022-09-09T00:37:23;5.60;;;1.67;;
18510;SDS011;9384;48.044;11.616;2022-09-09T00:39:52;1.87;;;1.20;;
18510;SDS011;9384;48.044;11.616;2022-09-09T00:42:23;1.50;;;1.40;;
18510;SDS011;9384;48.044;11.616;2022-09-09T00:44:52;1.40;;;1.30;;
18510;SDS011;9384;48.044;11.616;2022-09-09T00:47:40;4.70;;;1.23;;
18510;SDS011;9384;48.044;11.616;2022-09-09T00:50:14;9.10;;;1.50;;
18510;SDS011;9384;48.044;11.616;2022-09-09T00:52:44;2.03;;;1.43;;
18510;SDS011;9384;48.044;11.616;2022-09-09T00:55:15;1.43;;;1.20;;
18510;SDS011;9384;48.044;11.616;2022-09-09T00:57:44;1.63;;;1.23;;
18510;SDS011;9384;48.044;11.616;2022-09-09T01:00:22;1.47;;;1.30;;
18510;SDS011;9384;48.044;11.616;2022-09-09T01:02:56;1.30;;;1.20;;
18510;SDS011;9384;48.044;11.616;2022-09-09T01:05:29;3.70;;;1.20;;
18510;SDS011;9384;48.044;11.616;2022-09-09T01:07:57;2.63;;;1.10;;
18510;SDS011;9384;48.044;11.616;2022-09-09T01:10:26;6.80;;;1.20;;
18510;SDS011;9384;48.044;11.616;2022-09-09T01:12:55;1.30;;;1.20;;
18510;SDS011;9384;48.044;11.616;2022-09-09T01:15:26;4.90;;;1.30;;
18510;SDS011;9384;48.044;11.616;2022-09-09T01:17:58;1.63;;;1.37;;
18510;SDS011;9384;48.044;11.616;2022-09-09T01:20:28;1.30;;;1.30;;
18510;SDS011;9384;48.044;11.616;2022-09-09T01:23:04;1.40;;;1.30;;
18510;SDS011;9384;48.044;11.616;2022-09-09T01:28:22;3.13;;;1.80;;
18510;SDS011;9384;48.044;11.616;2022-09-09T01:30:49;2.10;;;1.30;;
18510;SDS011;9384;48.044;11.616;2022-09-09T01:33:17;1.30;;;1.30;;
18510;SDS011;9384;48.044;11.616;2022-09-09T01:35:46;1.93;;;1.30;;
18510;SDS011;9384;48.044;11.616;2022-09-09T01:38:15;0.90;;;0.90;;
18510;SDS011;9384;48.044;11.616;2022-09-09T01:40:43;1.67;;;1.30;;
18510;SDS011;9384;48.044;11.616;2022-09-09T01:43:11;1.30;;;1.30;;
18510;SDS011;9384;48.044;11.616;2022-09-09T01:45:39;1.00;;;1.00;;
18510;SDS011;9384;48.044;11.616;2022-09-09T01:48:08;3.33;;;1.20;;
18510;SDS011;9384;48.044;11.616;2022-09-09T01:50:35;3.37;;;1.40;;
18510;SDS011;9384;48.044;11.616;2022-09-09T01:53:02;1.17;;;1.17;;
18510;SDS011;9384;48.044;11.616;2022-09-09T01:55:30;1.70;;;1.40;;
18510;SDS011;9384;48.044;11.616;2022-09-09T01:58:02;2.93;;;1.60;;
18510;SDS011;9384;48.044;11.616;2022-09-09T02:00:33;1.30;;;1.30;;
18510;SDS011;9384;48.044;11.616;2022-09-09T02:03:05;1.23;;;1.23;;
18510;SDS011;9384;48.044;11.616;2022-09-09T02:05:35;6.43;;;1.63;;
18510;SDS011;9384;48.044;11.616;2022-09-09T02:08:05;1.33;;;1.33;;
18510;SDS011;9384;48.044;11.616;2022-09-09T02:10:35;1.10;;;1.10;;
18510;SDS011;9384;48.044;11.616;2022-09-09T02:13:04;1.23;;;1.23;;
18510;SDS011;9384;48.044;11.616;2022-09-09T02:15:34;1.20;;;1.20;;
18510;SDS011;9384;48.044;11.616;2022-09-09T02:18:02;1.13;;;1.13;;
18510;SDS011;9384;48.044;11.616;2022-09-09T02:20:34;1.97;;;1.27;;
18510;SDS011;9384;48.044;11.616;2022-09-09T02:23:01;3.00;;;1.50;;
18510;SDS011;9384;48.044;11.616;2022-09-09T02:25:30;1.83;;;1.73;;
18510;SDS011;9384;48.044;11.616;2022-09-09T02:27:57;1.10;;;1.10;;
18510;SDS011;9384;48.044;11.616;2022-09-09T02:30:24;3.30;;;1.17;;
18510;SDS011;9384;48.044;11.616;2022-09-09T02:32:52;3.20;;;1.20;;
18510;SDS011;9384;48.044;11.616;2022-09-09T02:35:23;1.00;;;1.00;;
18510;SDS011;9384;48.044;11.616;2022-09-09T02:37:53;1.10;;;1.10;;
18510;SDS011;9384;48.044;11.616;2022-09-09T02:40:22;2.00;;;1.13;;
18510;SDS011;9384;48.044;11.616;2022-09-09T02:42:49;3.50;;;1.30;;
18510;SDS011;9384;48.044;11.616;2022-09-09T02:45:18;2.37;;;1.30;;
18510;SDS011;9384;48.044;11.616;2022-09-09T02:47:47;1.87;;;1.10;;
18510;SDS011;9384;48.044;11.616;2022-09-09T02:50:18;1.10;;;1.10;;
18510;SDS011;9384;48.044;11.616;2022-09-09T02:52:54;1.17;;;1.17;;
18510;SDS011;9384;48.044;11.616;2022-09-09T02:55:24;3.93;;;1.57;;
18510;SDS011;9384;48.044;11.616;2022-09-09T02:57:53;4.43;;;1.20;;
18510;SDS011;9384;48.044;11.616;2022-09-09T03:00:22;1.20;;;1.20;;
18510;SDS011;9384;48.044;11.616;2022-09-09T03:02:50;1.20;;;1.20;;
18510;SDS011;9384;48.044;11.616;2022-09-09T03:05:18;1.60;;;1.13;;
18510;SDS011;9384;48.044;11.616;2022-09-09T03:07:45;1.70;;;1.17;;
18510;SDS011;9384;48.044;11.616;2022-09-09T03:10:14;1.10;;;1.10;;
18510;SDS011;9384;48.044;11.616;2022-09-09T03:12:42;2.93;;;1.50;;
18510;SDS011;9384;48.044;11.616;2022-09-09T03:15:09;2.40;;;1.10;;
18510;SDS011;9384;48.044;11.616;2022-09-09T03:17:37;5.03;;;1.20;;
18510;SDS011;9384;48.044;11.616;2022-09-09T03:20:04;0.93;;;0.93;;
18510;SDS011;9384;48.044;11.616;2022-09-09T03:22:32;1.30;;;1.27;;
18510;SDS011;9384;48.044;11.616;2022-09-09T03:24:59;1.33;;;1.23;;
18510;SDS011;9384;48.044;11.616;2022-09-09T03:27:29;1.90;;;1.10;;
18510;SDS011;9384;48.044;11.616;2022-09-09T03:29:56;3.23;;;1.13;;
18510;SDS011;9384;48.044;11.616;2022-09-09T03:32:23;1.03;;;0.93;;
18510;SDS011;9384;48.044;11.616;2022-09-09T03:34:51;1.23;;;1.13;;
18510;SDS011;9384;48.044;11.616;2022-09-09T03:37:19;1.33;;;1.23;;
18510;SDS011;9384;48.044;11.616;2022-09-09T03:39:47;4.00;;;1.30;;
18510;SDS011;9384;48.044;11.616;2022-09-09T03:42:14;6.17;;;1.37;;
18510;SDS011;9384;48.044;11.616;2022-09-09T03:44:45;1.20;;;1.20;;
18510;SDS011;9384;48.044;11.616;2022-09-09T03:47:15;2.73;;;1.33;;
18510;SDS011;9384;48.044;11.616;2022-09-09T03:49:43;1.27;;;1.27;;
18510;SDS011;9384;48.044;11.616;2022-09-09T03:52:10;1.40;;;1.40;;
18510;SDS011;9384;48.044;11.616;2022-09-09T03:54:37;1.33;;;1.20;;
18510;SDS011;9384;48.044;11.616;2022-09-09T03:57:06;1.30;;;1.30;;
18510;SDS011;9384;48.044;11.616;2022-09-09T03:59:33;1.60;;;1.50;;
18510;SDS011;9384;48.044;11.616;2022-09-09T04:02:02;1.20;;;1.17;;
18510;SDS011;9384;48.044;11.616;2022-09-09T04:04:29;1.93;;;1.53;;
18510;SDS011;9384;48.044;11.616;2022-09-09T04:06:57;2.50;;;1.27;;
18510;SDS011;9384;48.044;11.616;2022-09-09T04:09:24;1.50;;;1.40;;
18510;SDS011;9384;48.044;11.616;2022-09-09T04:11:51;1.43;;;1.43;;
18510;SDS011;9384;48.044;11.616;2022-09-09T04:14:20;2.70;;;1.33;;
18510;SDS011;9384;48.044;11.616;2022-09-09T04:16:47;1.37;;;1.30;;
18510;SDS011;9384;48.044;11.616;2022-09-09T04:19:16;1.40;;;1.40;;
18510;SDS011;9384;48.044;11.616;2022-09-09T04:21:43;1.50;;;1.40;;
18510;SDS011;9384;48.044;11.616;2022-09-09T04:24:10;1.30;;;1.30;;
18510;SDS011;9384;48.044;11.616;2022-09-09T04:26:37;1.37;;;1.30;;
18510;SDS011;9384;48.044;11.616;2022-09-09T04:29:05;1.53;;;1.40;;
18510;SDS011;9384;48.044;11.616;2022-09-09T04:31:33;1.30;;;1.30;;
18510;SDS011;9384;48.044;11.616;2022-09-09T04:34:00;2.67;;;1.50;;
18510;SDS011;9384;48.044;11.616;2022-09-09T04:36:31;2.83;;;1.40;;
18510;SDS011;9384;48.044;11.616;2022-09-09T04:38:59;1.37;;;1.27;;
18510;SDS011;9384;48.044;11.616;2022-09-09T04:41:27;1.77;;;1.30;;
18510;SDS011;9384;48.044;11.616;2022-09-09T04:43:56;1.37;;;1.33;;
18510;SDS011;9384;48.044;11.616;2022-09-09T04:46:25;1.30;;;1.30;;
18510;SDS011;9384;48.044;11.616;2022-09-09T04:48:52;2.47;;;1.50;;
18510;SDS011;9384;48.044;11.616;2022-09-09T04:51:19;1.37;;;1.37;;
18510;SDS011;9384;48.044;11.616;2022-09-09T04:53:48;1.70;;;1.50;;
18510;SDS011;9384;48.044;11.616;2022-09-09T04:56:17;1.60;;;1.30;;
18510;SDS011;9384;48.044;11.616;2022-09-09T04:58:44;6.30;;;1.50;;
18510;SDS011;9384;48.044;11.616;2022-09-09T05:01:12;1.30;;;1.30;;
18510;SDS011;9384;48.044;11.616;2022-09-09T05:03:40;3.03;;;1.57;;
18510;SDS011;9384;48.044;11.616;2022-09-09T05:06:08;1.90;;;1.50;;
18510;SDS011;9384;48.044;11.616;2022-09-09T05:08:36;1.60;;;1.50;;
18510;SDS011;9384;48.044;11.616;2022-09-09T05:11:11;1.27;;;1.07;;
18510;SDS011;9384;48.044;11.616;2022-09-09T05:13:39;1.53;;;1.23;;
18510;SDS011;9384;48.044;11.616;2022-09-09T05:16:06;1.00;;;1.00;;
18510;SDS011;9384;48.044;11.616;2022-09-09T05:18:36;2.40;;;1.40;;
18510;SDS011;9384;48.044;11.616;2022-09-09T05:21:03;2.60;;;1.63;;
18510;SDS011;9384;48.044;11.616;2022-09-09T05:23:31;3.00;;;1.53;;
18510;SDS011;9384;48.044;11.616;2022-09-09T05:25:59;4.67;;;1.77;;
18510;SDS011;9384;48.044;11.616;2022-09-09T05:28:28;1.73;;;1.60;;
18510;SDS011;9384;48.044;11.616;2022-09-09T05:30:56;6.97;;;1.30;;
18510;SDS011;9384;48.044;11.616;2022-09-09T05:33:23;1.77;;;1.27;;
18510;SDS011;9384;48.044;11.616;2022-09-09T05:35:55;1.20;;;1.20;;
18510;SDS011;9384;48.044;11.616;2022-09-09T05:38:22;4.63;;;1.50;;
18510;SDS011;9384;48.044;11.616;2022-09-09T05:40:50;2.47;;;1.43;;
18510;SDS011;9384;48.044;11.616;2022-09-09T05:43:18;1.90;;;1.40;;
18510;SDS011;9384;48.044;11.616;2022-09-09T05:45:47;1.27;;;1.13;;
18510;SDS011;9384;48.044;11.616;2022-09-09T05:48:14;3.63;;;1.40;;
18510;SDS011;9384;48.044;11.616;2022-09-09T05:50:41;1.70;;;1.60;;
18510;SDS011;9384;48.044;11.616;2022-09-09T05:53:10;2.63;;;2.27;;
18510;SDS011;9384;48.044;11.616;2022-09-09T05:55:37;7.47;;;3.53;;
18510;SDS011;9384;48.044;11.616;2022-09-09T05:58:04;6.53;;;1.70;;
18510;SDS011;9384;48.044;11.616;2022-09-09T06:00:31;8.30;;;2.30;;
18510;SDS011;9384;48.044;11.616;2022-09-09T06:03:00;6.23;;;1.60;;
18510;SDS011;9384;48.044;11.616;2022-09-09T06:05:28;4.37;;;1.43;;
18510;SDS011;9384;48.044;11.616;2022-09-09T06:07:55;2.93;;;1.43;;
18510;SDS011;9384;48.044;11.616;2022-09-09T06:10:22;1.90;;;1.13;;
18510;SDS011;9384;48.044;11.616;2022-09-09T06:12:52;2.33;;;1.13;;
18510;SDS011;9384;48.044;11.616;2022-09-09T06:15:19;1.50;;;1.13;;
18510;SDS011;9384;48.044;11.616;2022-09-09T06:17:46;0.90;;;0.90;;
18510;SDS011;9384;48.044;11.616;2022-09-09T06:20:16;1.10;;;0.90;;
18510;SDS011;9384;48.044;11.616;2022-09-09T06:22:43;0.80;;;0.80;;
18510;SDS011;9384;48.044;11.616;2022-09-09T06:25:11;7.93;;;1.23;;
18510;SDS011;9384;48.044;11.616;2022-09-09T06:27:39;1.80;;;0.93;;
18510;SDS011;9384;48.044;11.616;2022-09-09T06:30:07;1.23;;;1.23;;
18510;SDS011;9384;48.044;11.616;2022-09-09T06:32:35;1.17;;;1.17;;
18510;SDS011;9384;48.044;11.616;2022-09-09T06:35:03;1.07;;;1.07;;
18510;SDS011;9384;48.044;11.616;2022-09-09T06:37:31;1.10;;;1.10;;
18510;SDS011;9384;48.044;11.616;2022-09-09T06:39:59;0.97;;;0.97;;
18510;SDS011;9384;48.044;11.616;2022-09-09T06:42:26;1.70;;;1.30;;
18510;SDS011;9384;48.044;11.616;2022-09-09T06:44:53;2.00;;;1.30;;
18510;SDS011;9384;48.044;11.616;2022-09-09T06:47:21;1.90;;;1.10;;
18510;SDS011;9384;48.044;11.616;2022-09-09T06:49:49;1.10;;;1.00;;
18510;SDS011;9384;48.044;11.616;2022-09-09T06:52:16;2.07;;;1.40;;
18510;SDS011;9384;48.044;11.616;2022-09-09T06:54:45;1.63;;;1.17;;
18510;SDS011;9384;48.044;11.616;2022-09-09T06:57:13;2.77;;;1.17;;
18510;SDS011;9384;48.044;11.616;2022-09-09T06:59:40;1.23;;;1.23;;
18510;SDS011;9384;48.044;11.616;2022-09-09T07:02:08;1.00;;;1.00;;
18510;SDS011;9384;48.044;11.616;2022-09-09T07:04:35;1.37;;;1.37;;
18510;SDS011;9384;48.044;11.616;2022-09-09T07:07:03;1.00;;;1.00;;
18510;SDS011;9384;48.044;11.616;2022-09-09T07:09:30;1.10;;;1.10;;
18510;SDS011;9384;48.044;11.616;2022-09-09T07:11:59;2.57;;;1.30;;
18510;SDS011;9384;48.044;11.616;2022-09-09T07:14:26;4.43;;;1.40;;
18510;SDS011;9384;48.044;11.616;2022-09-09T07:16:53;1.40;;;1.30;;
18510;SDS011;9384;48.044;11.616;2022-09-09T07:19:20;2.10;;;1.40;;
18510;SDS011;9384;48.044;11.616;2022-09-09T07:21:48;2.13;;;1.17;;
18510;SDS011;9384;48.044;11.616;2022-09-09T07:24:15;1.40;;;1.30;;
18510;SDS011;9384;48.044;11.616;2022-09-09T07:26:43;1.40;;;1.30;;
18510;SDS011;9384;48.044;11.616;2022-09-09T07:29:12;2.13;;;1.00;;
18510;SDS011;9384;48.044;11.616;2022-09-09T07:31:39;2.63;;;1.00;;
18510;SDS011;9384;48.044;11.616;2022-09-09T07:34:07;1.53;;;1.10;;
18510;SDS011;9384;48.044;11.616;2022-09-09T07:36:35;1.13;;;1.03;;
18510;SDS011;9384;48.044;11.616;2022-09-09T07:39:04;1.60;;;1.17;;
18510;SDS011;9384;48.044;11.616;2022-09-09T07:41:32;1.30;;;1.20;;
18510;SDS011;9384;48.044;11.616;2022-09-09T07:44:03;0.90;;;0.90;;
18510;SDS011;9384;48.044;11.616;2022-09-09T07:46:33;3.07;;;1.57;;
18510;SDS011;9384;48.044;11.616;2022-09-09T07:49:00;1.10;;;1.10;;
18510;SDS011;9384;48.044;11.616;2022-09-09T07:51:28;1.57;;;1.47;;
18510;SDS011;9384;48.044;11.616;2022-09-09T07:53:56;3.20;;;1.20;;
18510;SDS011;9384;48.044;11.616;2022-09-09T07:56:25;1.50;;;1.10;;
18510;SDS011;9384;48.044;11.616;2022-09-09T07:58:53;1.20;;;1.20;;
18510;SDS011;9384;48.044;11.616;2022-09-09T08:01:21;1.37;;;1.10;;
18510;SDS011;9384;48.044;11.616;2022-09-09T08:03:53;3.47;;;1.40;;
18510;SDS011;9384;48.044;11.616;2022-09-09T08:06:23;1.77;;;1.67;;
18510;SDS011;9384;48.044;11.616;2022-09-09T08:08:51;1.20;;;1.10;;
18510;SDS011;9384;48.044;11.616;2022-09-09T08:11:21;2.10;;;1.20;;
18510;SDS011;9384;48.044;11.616;2022-09-09T08:13:49;3.53;;;1.20;;
18510;SDS011;9384;48.044;11.616;2022-09-09T08:16:18;2.00;;;1.00;;
18510;SDS011;9384;48.044;11.616;2022-09-09T08:18:46;1.17;;;1.10;;
18510;SDS011;9384;48.044;11.616;2022-09-09T08:21:16;1.30;;;1.10;;
18510;SDS011;9384;48.044;11.616;2022-09-09T08:23:44;1.30;;;0.90;;
18510;SDS011;9384;48.044;11.616;2022-09-09T08:26:13;3.10;;;1.17;;
18510;SDS011;9384;48.044;11.616;2022-09-09T08:28:40;1.23;;;1.10;;
18510;SDS011;9384;48.044;11.616;2022-09-09T08:31:09;0.90;;;0.90;;
18510;SDS011;9384;48.044;11.616;2022-09-09T08:33:37;1.10;;;1.10;;
18510;SDS011;9384;48.044;11.616;2022-09-09T08:36:04;1.20;;;1.20;;
18510;SDS011;9384;48.044;11.616;2022-09-09T08:38:33;2.43;;;1.20;;
18510;SDS011;9384;48.044;11.616;2022-09-09T08:41:04;1.80;;;1.10;;
18510;SDS011;9384;48.044;11.616;2022-09-09T08:43:34;1.10;;;1.10;;
18510;SDS011;9384;48.044;11.616;2022-09-09T08:46:02;4.97;;;1.20;;
18510;SDS011;9384;48.044;11.616;2022-09-09T08:48:39;1.10;;;1.10;;
18510;SDS011;9384;48.044;11.616;2022-09-09T08:51:10;3.10;;;1.17;;
18510;SDS011;9384;48.044;11.616;2022-09-09T08:53:40;0.90;;;0.90;;
18510;SDS011;9384;48.044;11.616;2022-09-09T08:56:10;2.10;;;1.33;;
18510;SDS011;9384;48.044;11.616;2022-09-09T08:58:40;2.07;;;1.50;;
18510;SDS011;9384;48.044;11.616;2022-09-09T09:01:16;1.10;;;1.10;;
18510;SDS011;9384;48.044;11.616;2022-09-09T09:03:48;4.67;;;1.13;;
18510;SDS011;9384;48.044;11.616;2022-09-09T09:06:21;1.97;;;1.23;;
18510;SDS011;9384;48.044;11.616;2022-09-09T09:08:54;1.77;;;1.40;;
18510;SDS011;9384;48.044;11.616;2022-09-09T09:11:24;2.90;;;1.03;;
18510;SDS011;9384;48.044;11.616;2022-09-09T09:13:52;2.63;;;1.23;;
18510;SDS011;9384;48.044;11.616;2022-09-09T09:16:23;1.10;;;1.10;;
18510;SDS011;9384;48.044;11.616;2022-09-09T09:18:53;1.50;;;1.40;;
18510;SDS011;9384;48.044;11.616;2022-09-09T09:21:21;1.07;;;1.07;;
18510;SDS011;9384;48.044;11.616;2022-09-09T09:23:54;2.90;;;1.40;;
18510;SDS011;9384;48.044;11.616;2022-09-09T09:26:22;0.90;;;0.90;;
18510;SDS011;9384;48.044;11.616;2022-09-09T09:28:51;1.43;;;1.23;;
18510;SDS011;9384;48.044;11.616;2022-09-09T09:31:21;0.80;;;0.80;;
18510;SDS011;9384;48.044;11.616;2022-09-09T09:33:51;1.00;;;0.97;;
18510;SDS011;9384;48.044;11.616;2022-09-09T09:36:19;1.00;;;1.00;;
18510;SDS011;9384;48.044;11.616;2022-09-09T09:38:55;1.60;;;1.10;;
18510;SDS011;9384;48.044;11.616;2022-09-09T09:41:31;1.13;;;0.83;;
18510;SDS011;9384;48.044;11.616;2022-09-09T09:43:59;1.00;;;1.00;;
18510;SDS011;9384;48.044;11.616;2022-09-09T09:46:26;1.20;;;1.10;;
18510;SDS011;9384;48.044;11.616;2022-09-09T09:48:57;0.73;;;0.73;;
18510;SDS011;9384;48.044;11.616;2022-09-09T09:51:25;1.20;;;1.20;;
18510;SDS011;9384;48.044;11.616;2022-09-09T09:53:54;1.67;;;1.00;;
18510;SDS011;9384;48.044;11.616;2022-09-09T09:56:30;2.13;;;1.00;;
18510;SDS011;9384;48.044;11.616;2022-09-09T09:58:58;1.10;;;0.97;;
18510;SDS011;9384;48.044;11.616;2022-09-09T10:01:26;2.57;;;1.20;;
18510;SDS011;9384;48.044;11.616;2022-09-09T10:03:56;5.10;;;1.30;;
18510;SDS011;9384;48.044;11.616;2022-09-09T10:06:30;1.20;;;1.10;;
18510;SDS011;9384;48.044;11.616;2022-09-09T10:09:00;2.93;;;1.30;;
18510;SDS011;9384;48.044;11.616;2022-09-09T10:11:35;0.90;;;0.90;;
18510;SDS011;9384;48.044;11.616;2022-09-09T10:14:05;1.00;;;1.00;;
18510;SDS011;9384;48.044;11.616;2022-09-09T10:16:40;1.20;;;1.10;;
18510;SDS011;9384;48.044;11.616;2022-09-09T10:19:13;0.80;;;0.80;;
18510;SDS011;9384;48.044;11.616;2022-09-09T10:21:46;1.17;;;1.10;;
18510;SDS011;9384;48.044;11.616;2022-09-09T10:24:23;2.07;;;0.90;;
18510;SDS011;9384;48.044;11.616;2022-09-09T10:26:54;0.90;;;0.90;;
18510;SDS011;9384;48.044;11.616;2022-09-09T10:29:32;1.00;;;1.00;;
18510;SDS011;9384;48.044;11.616;2022-09-09T10:32:06;1.17;;;1.10;;
18510;SDS011;9384;48.044;11.616;2022-09-09T10:34:49;3.03;;;1.00;;
18510;SDS011;9384;48.044;11.616;2022-09-09T10:37:22;2.27;;;1.13;;
18510;SDS011;9384;48.044;11.616;2022-09-09T10:39:56;1.70;;;1.13;;
18510;SDS011;9384;48.044;11.616;2022-09-09T10:42:29;1.60;;;1.10;;
18510;SDS011;9384;48.044;11.616;2022-09-09T10:45:02;2.83;;;1.07;;
18510;SDS011;9384;48.044;11.616;2022-09-09T10:47:39;0.97;;;0.97;;
18510;SDS011;9384;48.044;11.616;2022-09-09T10:50:18;1.00;;;1.00;;
18510;SDS011;9384;48.044;11.616;2022-09-09T10:52:49;0.87;;;0.80;;
18510;SDS011;9384;48.044;11.616;2022-09-09T10:55:23;0.67;;;0.67;;
18510;SDS011;9384;48.044;11.616;2022-09-09T10:57:53;1.03;;;0.93;;
18510;SDS011;9384;48.044;11.616;2022-09-09T11:00:21;2.83;;;0.93;;
18510;SDS011;9384;48.044;11.616;2022-09-09T11:02:51;1.30;;;0.90;;
18510;SDS011;9384;48.044;11.616;2022-09-09T11:05:20;0.77;;;0.77;;
18510;SDS011;9384;48.044;11.616;2022-09-09T11:07:49;1.77;;;0.87;;
18510;SDS011;9384;48.044;11.616;2022-09-09T11:10:21;0.70;;;0.70;;
18510;SDS011;9384;48.044;11.616;2022-09-09T11:12:52;1.60;;;0.80;;
18510;SDS011;9384;48.044;11.616;2022-09-09T11:15:21;1.33;;;1.00;;
18510;SDS011;9384;48.044;11.616;2022-09-09T11:17:56;0.93;;;0.93;;
18510;SDS011;9384;48.044;11.616;2022-09-09T11:20:24;3.20;;;1.00;;
18510;SDS011;9384;48.044;11.616;2022-09-09T11:22:53;2.93;;;0.93;;
18510;SDS011;9384;48.044;11.616;2022-09-09T11:25:24;0.97;;;0.97;;
18510;SDS011;9384;48.044;11.616;2022-09-09T11:27:58;6.00;;;0.90;;
18510;SDS011;9384;48.044;11.616;2022-09-09T11:30:30;0.70;;;0.70;;
18510;SDS011;9384;48.044;11.616;2022-09-09T11:35:49;1.57;;;0.90;;
18510;SDS011;9384;48.044;11.616;2022-09-09T11:38:23;2.10;;;0.70;;
18510;SDS011;9384;48.044;11.616;2022-09-09T11:40:56;2.00;;;0.50;;
18510;SDS011;9384;48.044;11.616;2022-09-09T11:43:27;0.90;;;0.70;;
18510;SDS011;9384;48.044;11.616;2022-09-09T11:45:55;0.70;;;0.70;;
18510;SDS011;9384;48.044;11.616;2022-09-09T11:48:26;0.63;;;0.60;;
18510;SDS011;9384;48.044;11.616;2022-09-09T11:50:57;0.73;;;0.73;;
18510;SDS011;9384;48.044;11.616;2022-09-09T11:53:25;1.33;;;0.60;;
18510;SDS011;9384;48.044;11.616;2022-09-09T11:58:54;0.40;;;0.40;;
18510;SDS011;9384;48.044;11.616;2022-09-09T12:01:30;0.50;;;0.50;;
18510;SDS011;9384;48.044;11.616;2022-09-09T12:06:43;2.97;;;0.70;;
18510;SDS011;9384;48.044;11.616;2022-09-09T12:09:17;1.90;;;0.50;;
18510;SDS011;9384;48.044;11.616;2022-09-09T12:11:45;0.60;;;0.60;;
18510;SDS011;9384;48.044;11.616;2022-09-09T12:14:20;0.80;;;0.80;;
18510;SDS011;9384;48.044;11.616;2022-09-09T12:16:48;0.93;;;0.50;;
18510;SDS011;9384;48.044;11.616;2022-09-09T12:19:16;0.67;;;0.67;;
18510;SDS011;9384;48.044;11.616;2022-09-09T12:21:48;3.10;;;0.63;;
18510;SDS011;9384;48.044;11.616;2022-09-09T12:24:18;1.60;;;1.03;;
18510;SDS011;9384;48.044;11.616;2022-09-09T12:26:47;1.47;;;0.50;;
18510;SDS011;9384;48.044;11.616;2022-09-09T12:29:22;0.57;;;0.57;;
18510;SDS011;9384;48.044;11.616;2022-09-09T12:31:53;0.87;;;0.87;;
18510;SDS011;9384;48.044;11.616;2022-09-09T12:34:26;1.13;;;0.70;;
18510;SDS011;9384;48.044;11.616;2022-09-09T12:36:57;0.67;;;0.60;;
18510;SDS011;9384;48.044;11.616;2022-09-09T12:39:28;0.60;;;0.53;;
18510;SDS011;9384;48.044;11.616;2022-09-09T12:41:57;1.63;;;0.50;;
18510;SDS011;9384;48.044;11.616;2022-09-09T12:44:26;1.17;;;0.60;;
18510;SDS011;9384;48.044;11.616;2022-09-09T12:46:54;3.40;;;0.67;;
18510;SDS011;9384;48.044;11.616;2022-09-09T12:49:25;0.60;;;0.60;;
18510;SDS011;9384;48.044;11.616;2022-09-09T12:51:53;1.40;;;0.60;;
18510;SDS011;9384;48.044;11.616;2022-09-09T12:54:22;0.63;;;0.63;;
18510;SDS011;9384;48.044;11.616;2022-09-09T12:56:49;0.50;;;0.50;;
18510;SDS011;9384;48.044;11.616;2022-09-09T12:59:21;0.50;;;0.50;;
18510;SDS011;9384;48.044;11.616;2022-09-09T13:01:56;1.90;;;0.70;;
18510;SDS011;9384;48.044;11.616;2022-09-09T13:04:23;1.23;;;0.70;;
18510;SDS011;9384;48.044;11.616;2022-09-09T13:06:51;0.43;;;0.43;;
18510;SDS011;9384;48.044;11.616;2022-09-09T13:09:18;1.23;;;0.43;;
18510;SDS011;9384;48.044;11.616;2022-09-09T13:11:46;0.50;;;0.50;;
18510;SDS011;9384;48.044;11.616;2022-09-09T13:14:16;0.73;;;0.73;;
18510;SDS011;9384;48.044;11.616;2022-09-09T13:16:53;0.77;;;0.77;;
18510;SDS011;9384;48.044;11.616;2022-09-09T13:19:23;1.53;;;0.53;;
18510;SDS011;9384;48.044;11.616;2022-09-09T13:21:52;1.03;;;0.50;;
18510;SDS011;9384;48.044;11.616;2022-09-09T13:24:24;0.50;;;0.50;;
18510;SDS011;9384;48.044;11.616;2022-09-09T13:26:53;2.50;;;1.00;;
18510;SDS011;9384;48.044;11.616;2022-09-09T13:29:21;0.60;;;0.60;;
18510;SDS011;9384;48.044;11.616;2022-09-09T13:31:49;0.60;;;0.60;;
18510;SDS011;9384;48.044;11.616;2022-09-09T13:34:29;1.00;;;0.60;;
18510;SDS011;9384;48.044;11.616;2022-09-09T13:36:59;1.70;;;0.80;;
18510;SDS011;9384;48.044;11.616;2022-09-09T13:39:28;2.57;;;0.70;;
18510;SDS011;9384;48.044;11.616;2022-09-09T13:41:56;1.60;;;0.67;;
18510;SDS011;9384;48.044;11.616;2022-09-09T13:44:24;1.60;;;0.70;;
18510;SDS011;9384;48.044;11.616;2022-09-09T13:47:02;0.77;;;0.70;;
18510;SDS011;9384;48.044;11.616;2022-09-09T13:49:49;1.30;;;0.83;;
18510;SDS011;9384;48.044;11.616;2022-09-09T13:52:18;0.70;;;0.70;;
18510;SDS011;9384;48.044;11.616;2022-09-09T13:54:47;0.80;;;0.80;;
18510;SDS011;9384;48.044;11.616;2022-09-09T13:57:16;0.70;;;0.70;;
18510;SDS011;9384;48.044;11.616;2022-09-09T13:59:44;0.50;;;0.50;;
18510;SDS011;9384;48.044;11.616;2022-09-09T14:02:11;0.67;;;0.67;;
18510;SDS011;9384;48.044;11.616;2022-09-09T14:04:38;0.70;;;0.70;;
18510;SDS011;9384;48.044;11.616;2022-09-09T14:07:09;1.63;;;0.70;;
18510;SDS011;9384;48.044;11.616;2022-09-09T14:09:38;0.57;;;0.57;;
18510;SDS011;9384;48.044;11.616;2022-09-09T14:12:05;1.63;;;0.67;;
18510;SDS011;9384;48.044;11.616;2022-09-09T14:14:33;0.60;;;0.60;;
18510;SDS011;9384;48.044;11.616;2022-09-09T14:17:00;2.47;;;0.70;;
18510;SDS011;9384;48.044;11.616;2022-09-09T14:19:28;2.57;;;0.60;;
18510;SDS011;9384;48.044;11.616;2022-09-09T14:21:56;1.23;;;0.90;;
18510;SDS011;9384;48.044;11.616;2022-09-09T14:24:25;0.70;;;0.70;;
18510;SDS011;9384;48.044;11.616;2022-09-09T14:26:52;1.40;;;0.80;;
18510;SDS011;9384;48.044;11.616;2022-09-09T14:29:20;0.70;;;0.70;;
18510;SDS011;9384;48.044;11.616;2022-09-09T14:31:47;1.20;;;1.20;;
18510;SDS011;9384;48.044;11.616;2022-09-09T14:34:14;1.23;;;1.00;;
18510;SDS011;9384;48.044;11.616;2022-09-09T14:36:42;2.93;;;0.87;;
18510;SDS011;9384;48.044;11.616;2022-09-09T14:39:10;1.60;;;0.90;;
18510;SDS011;9384;48.044;11.616;2022-09-09T14:41:39;1.70;;;1.70;;
18510;SDS011;9384;48.044;11.616;2022-09-09T14:44:06;2.63;;;0.90;;
18510;SDS011;9384;48.044;11.616;2022-09-09T14:46:34;2.33;;;0.80;;
18510;SDS011;9384;48.044;11.616;2022-09-09T14:49:01;1.63;;;1.07;;
18510;SDS011;9384;48.044;11.616;2022-09-09T14:51:29;0.90;;;0.90;;
18510;SDS011;9384;48.044;11.616;2022-09-09T14:53:57;3.83;;;3.60;;
18510;SDS011;9384;48.044;11.616;2022-09-09T14:56:25;4.67;;;2.50;;
18510;SDS011;9384;48.044;11.616;2022-09-09T14:58:54;1.57;;;1.50;;
18510;SDS011;9384;48.044;11.616;2022-09-09T15:01:22;1.00;;;1.00;;
18510;SDS011;9384;48.044;11.616;2022-09-09T15:03:50;3.07;;;1.60;;
18510;SDS011;9384;48.044;11.616;2022-09-09T15:06:17;3.87;;;2.90;;
18510;SDS011;9384;48.044;11.616;2022-09-09T15:08:45;4.80;;;2.83;;
18510;SDS011;9384;48.044;11.616;2022-09-09T15:11:13;1.27;;;1.27;;
18510;SDS011;9384;48.044;11.616;2022-09-09T15:13:41;1.20;;;0.77;;